Airfield :
LOGIN :

Register | Disclaimer

   EN    FR    IT 

 










Legend :    VFR   Marginal VFR   IFR   Intensive IFR   Very Intensive IFR
Visi :
Ceiling :
>= 8 km
>= 3000ft
5 to 8 km
1000 to 3000 ft
1500m to 5 km
500 to 1000 ft
800 to 1500m
200 to 500 ft
< 800m
< 200 ft
Symbols :   Thunderstorms  Fog  Heavy snow  Heavy precipitations  Wind > 20 kt
SIGMETs :     Misc.  Thunderstorms  Icing  Turbulence  Mountain Waves  Volcanic Ashes






- Airport Elevation : 16 ft
- IATA code : EAS


LESO - San Sebastian Fuenterrabia

CURRENT METAR :
  • 170430Z 23010KT 200V270 9999 -DZ FEW022 SCT035 BKN048 09/07 Q1010

EXPIRED METARs :
  • 170400Z AUTO 23010KT 210V270 9999 SCT028 BKN045 BKN060 09/06 Q1011
  • 170330Z AUTO 24008KT 210V280 9999 SCT028 SCT037 BKN050 09/06 Q1011
  • 170300Z AUTO 24008KT 200V290 9999 SCT027 BKN033 BKN045 09/06 Q1011
  • 170230Z AUTO 23009KT 200V270 9999 SCT032 SCT043 BKN060 09/06 Q1011
  • 170200Z AUTO 24009KT 200V270 9999 SCT028 BKN034 BKN050 09/06 Q1011
  • 170130Z AUTO 24009KT 200V280 9999 BKN038 BKN048 BKN066 09/06 Q1012

TAF TAF LESO
Valid from the 17 at 00:00 until the 18 at 00:00 UTC


162300Z 1700/1724 22009KT 9999 SCT020 BKN035 TX10/1712Z TN06/1706Z
TEMPO 1700/1710 4500 -RA
TEMPO 1710/1724 3000 RA SHRA BKN025TCU
PROB40
TEMPO 1716/1718 22015G25KT



MET'MAP, your aeronautical weather chart ! - Copyright ORBIFLY December 2007 - Disclaimer

ORBIFLY MET'MAP TEAM :

Programming & Development : Alexandra Zaïnal
Concept & Development : Baudouin d'Aumeries
Co-Development & Prog : Marc-Olivier Méhu
Technical & hardware support : Manuel Goepfert

Contact : metmap@orbifly.com




SOURCES & CREDITS :

   NOAA